createdAt,value
2023-04-02T00:00:11.350Z,9.45
2023-04-02T00:03:22.441Z,9.45
2023-04-02T00:06:33.329Z,9.42
2023-04-02T00:09:37.349Z,9.36
2023-04-02T00:12:40.111Z,9.29
2023-04-02T00:15:45.532Z,9.22
2023-04-02T00:18:55.669Z,9.15
2023-04-02T00:21:59.395Z,9.06
2023-04-02T00:25:08.923Z,9.00
2023-04-02T00:28:19.726Z,8.95
2023-04-02T00:31:23.517Z,8.87
2023-04-02T00:34:37.904Z,8.83
2023-04-02T00:37:42.390Z,8.81
2023-04-02T00:40:46.448Z,8.76
2023-04-02T00:43:54.776Z,8.75
2023-04-02T00:46:58.150Z,8.69
2023-04-02T00:50:23.134Z,8.77
2023-04-02T00:53:28.593Z,8.78
2023-04-02T00:56:41.241Z,8.88
2023-04-02T00:59:54.832Z,8.86
2023-04-02T01:03:17.830Z,8.92
2023-04-02T01:06:21.187Z,8.91
2023-04-02T01:09:47.247Z,8.90
2023-04-02T01:13:07.790Z,8.91
2023-04-02T01:16:26.096Z,8.95
2023-04-02T01:19:54.028Z,8.93
2023-04-02T01:23:13.564Z,8.96
2023-04-02T01:26:28.591Z,8.98
2023-04-02T01:29:34.352Z,9.02
2023-04-02T01:32:37.621Z,9.02
2023-04-02T01:35:43.823Z,9.03
2023-04-02T01:38:54.141Z,9.02
2023-04-02T01:42:09.937Z,9.02
2023-04-02T01:45:18.050Z,9.07
2023-04-02T01:48:27.603Z,9.04
2023-04-02T01:51:34.968Z,9.05
2023-04-02T01:54:38.141Z,9.05
2023-04-02T01:57:42.834Z,9.07
2023-04-02T02:00:52.490Z,9.08
2023-04-02T02:03:55.935Z,9.10
2023-04-02T02:07:02.364Z,9.13
2023-04-02T02:10:05.821Z,9.10
2023-04-02T02:13:14.998Z,9.08
2023-04-02T02:16:18.379Z,9.10
2023-04-02T02:19:37.655Z,9.04
2023-04-02T02:22:46.681Z,9.04
2023-04-02T02:25:49.755Z,9.03
2023-04-02T02:28:55.648Z,8.99
2023-04-02T02:31:59.404Z,8.96
2023-04-02T02:35:06.907Z,9.02
2023-04-02T02:38:26.394Z,9.00
2023-04-02T02:41:35.929Z,8.90
2023-04-02T02:44:42.789Z,8.92
2023-04-02T02:47:46.059Z,8.84
2023-04-02T02:50:49.971Z,8.77
2023-04-02T02:54:02.256Z,8.71
2023-04-02T02:57:08.548Z,8.55
2023-04-02T03:00:12.097Z,8.42
2023-04-02T03:03:22.349Z,8.21
2023-04-02T03:06:25.591Z,8.12
2023-04-02T03:09:52.490Z,8.08
2023-04-02T03:13:02.578Z,7.92
2023-04-02T03:16:26.540Z,7.83
2023-04-02T03:19:39.145Z,7.71
2023-04-02T03:22:47.502Z,7.69
2023-04-02T03:26:08.625Z,7.63
2023-04-02T03:29:18.319Z,7.54
2023-04-02T03:32:24.409Z,7.48
2023-04-02T03:35:58.857Z,7.36
2023-04-02T03:39:06.831Z,7.32
2023-04-02T03:42:30.915Z,7.32
2023-04-02T03:45:40.867Z,7.23
2023-04-02T03:48:50.513Z,7.35
2023-04-02T03:51:55.664Z,7.31
2023-04-02T03:55:00.568Z,7.30
2023-04-02T03:58:19.400Z,7.36
2023-04-02T04:01:34.764Z,7.46
2023-04-02T04:04:41.020Z,7.56
2023-04-02T04:07:44.241Z,7.65
2023-04-02T04:10:52.111Z,7.70
2023-04-02T04:14:03.648Z,7.83
2023-04-02T04:17:14.280Z,7.90
2023-04-02T04:20:22.318Z,7.95
2023-04-02T04:23:37.105Z,8.00
2023-04-02T04:26:42.197Z,7.94
2023-04-02T04:29:52.056Z,7.97
2023-04-02T04:33:02.232Z,8.00
2023-04-02T04:36:05.521Z,8.04
2023-04-02T04:39:21.885Z,8.08
2023-04-02T04:42:27.849Z,8.16
2023-04-02T04:45:43.875Z,8.19
2023-04-02T04:49:05.705Z,8.19
2023-04-02T04:52:19.737Z,8.21
2023-04-02T04:55:42.966Z,8.23
2023-04-02T04:58:57.335Z,8.30
2023-04-02T05:05:31.499Z,8.37
2023-04-02T05:08:36.820Z,8.40
2023-04-02T05:11:46.366Z,8.45
2023-04-02T05:14:57.742Z,8.49
2023-04-02T05:18:27.514Z,8.57
2023-04-02T05:21:45.084Z,8.70
2023-04-02T05:25:03.058Z,8.81
2023-04-02T05:28:31.104Z,8.93
2023-04-02T05:31:59.181Z,9.04
2023-04-02T05:35:05.677Z,9.13
2023-04-02T05:38:08.546Z,9.21
2023-04-02T05:41:42.487Z,9.28
2023-04-02T05:45:00.971Z,9.34
2023-04-02T05:48:12.536Z,9.41
2023-04-02T05:51:21.330Z,9.45
2023-04-02T05:54:30.540Z,9.48
2023-04-02T05:57:45.850Z,9.55
2023-04-02T06:01:03.053Z,9.61
2023-04-02T06:04:08.034Z,9.66
2023-04-02T06:07:16.043Z,9.73
2023-04-02T06:10:26.345Z,9.88
2023-04-02T06:13:29.644Z,10.22
2023-04-02T06:16:34.611Z,10.27
2023-04-02T06:19:38.778Z,10.25
2023-04-02T06:22:42.447Z,10.16
2023-04-02T06:25:56.479Z,10.25
2023-04-02T06:29:39.737Z,10.33
2023-04-02T06:32:42.691Z,10.43
2023-04-02T06:35:48.897Z,10.41
2023-04-02T06:38:52.649Z,10.27
2023-04-02T06:42:01.803Z,10.22
2023-04-02T06:45:05.346Z,10.27
2023-04-02T06:48:16.280Z,10.35
2023-04-02T06:51:21.274Z,10.35
2023-04-02T06:54:24.116Z,10.40
2023-04-02T06:57:28.536Z,10.44
2023-04-02T07:00:37.110Z,10.42
2023-04-02T07:03:40.297Z,10.52
2023-04-02T07:06:43.102Z,10.67
2023-04-02T07:09:46.024Z,10.64
2023-04-02T07:12:50.504Z,10.65
2023-04-02T07:15:56.783Z,10.81
2023-04-02T07:19:00.656Z,10.78
2023-04-02T07:22:03.357Z,10.80
2023-04-02T07:25:06.702Z,10.97
2023-04-02T07:28:09.580Z,11.02
2023-04-02T07:31:23.688Z,11.27
2023-04-02T07:34:29.505Z,11.54
2023-04-02T07:37:32.423Z,12.27
2023-04-02T07:40:35.321Z,12.32
2023-04-02T07:43:42.351Z,12.09
2023-04-02T07:46:45.225Z,11.82
2023-04-02T07:49:47.953Z,11.84
2023-04-02T07:52:50.985Z,11.83
2023-04-02T07:55:54.201Z,11.87
2023-04-02T07:59:00.048Z,11.90
2023-04-02T08:02:03.074Z,12.32
2023-04-02T08:05:07.063Z,12.16
2023-04-02T08:08:09.811Z,12.21
2023-04-02T08:11:12.696Z,12.22
2023-04-02T08:14:15.771Z,11.99
2023-04-02T08:17:18.921Z,11.96
2023-04-02T08:20:22.922Z,12.40
2023-04-02T08:23:26.360Z,12.57
2023-04-02T08:26:29.092Z,13.22
2023-04-02T08:29:32.644Z,13.28
2023-04-02T08:32:35.876Z,13.51
2023-04-02T08:35:39.112Z,13.72
2023-04-02T08:38:42.650Z,13.91
2023-04-02T08:42:07.144Z,13.88
2023-04-02T08:45:32.864Z,14.04
2023-04-02T08:48:40.796Z,13.39
2023-04-02T08:51:46.757Z,13.22
2023-04-02T08:54:50.402Z,13.31
2023-04-02T08:58:13.860Z,13.26
2023-04-02T09:01:20.844Z,13.23
2023-04-02T09:04:25.408Z,13.30
2023-04-02T09:07:28.795Z,13.30
2023-04-02T09:10:40.292Z,13.37
2023-04-02T09:13:49.333Z,13.27
2023-04-02T09:16:56.552Z,13.34
2023-04-02T09:20:13.554Z,13.34
2023-04-02T09:23:22.469Z,13.21
2023-04-02T09:26:32.338Z,13.51
2023-04-02T09:29:50.255Z,13.55
2023-04-02T09:32:58.924Z,13.23
2023-04-02T09:36:01.834Z,13.33
2023-04-02T09:39:19.052Z,13.67
2023-04-02T09:42:36.504Z,13.60
2023-04-02T09:45:40.398Z,13.72
2023-04-02T09:49:01.579Z,13.62
2023-04-02T09:52:11.869Z,13.95
2023-04-02T09:55:15.634Z,13.64
2023-04-02T09:58:18.796Z,13.36
2023-04-02T10:01:39.442Z,13.32
2023-04-02T10:04:49.959Z,13.34
2023-04-02T10:07:54.343Z,13.39
2023-04-02T10:11:00.168Z,13.53
2023-04-02T10:14:11.205Z,14.32
2023-04-02T10:17:33.435Z,14.44
2023-04-02T10:20:48.545Z,14.33
2023-04-02T10:23:55.279Z,13.81
2023-04-02T10:27:06.930Z,14.07
2023-04-02T10:30:21.479Z,14.04
2023-04-02T10:33:34.718Z,14.03
2023-04-02T10:36:40.742Z,14.17
2023-04-02T10:39:44.927Z,15.27
2023-04-02T10:43:27.581Z,14.79
2023-04-02T10:46:39.624Z,14.83
2023-04-02T10:49:50.834Z,15.88
2023-04-02T10:53:16.486Z,16.73
2023-04-02T10:56:19.566Z,17.31
2023-04-02T10:59:23.680Z,16.43
2023-04-02T11:02:32.202Z,15.36
2023-04-02T11:05:48.182Z,15.22
2023-04-02T11:08:58.411Z,15.36
2023-04-02T11:12:02.232Z,15.65
2023-04-02T11:15:15.363Z,15.34
2023-04-02T11:18:39.199Z,14.82
2023-04-02T11:21:57.889Z,14.56
2023-04-02T11:25:02.205Z,14.91
2023-04-02T11:28:27.914Z,14.85
2023-04-02T11:31:30.824Z,14.41
2023-04-02T11:34:46.299Z,14.26
2023-04-02T11:37:49.967Z,15.00
2023-04-02T11:40:56.912Z,14.64
2023-04-02T11:44:02.984Z,14.10
2023-04-02T11:47:35.276Z,13.94
2023-04-02T11:50:40.722Z,13.62
2023-04-02T11:53:43.787Z,13.60
2023-04-02T11:56:55.491Z,14.33
2023-04-02T12:00:07.044Z,16.94
2023-04-02T12:03:30.074Z,16.64
2023-04-02T12:06:47.224Z,16.75
2023-04-02T12:09:54.053Z,18.56
2023-04-02T12:12:56.930Z,15.91
2023-04-02T12:15:59.757Z,15.21
2023-04-02T12:19:02.786Z,15.16
2023-04-02T12:22:06.200Z,15.32
2023-04-02T12:25:21.925Z,16.48
2023-04-02T12:28:28.943Z,16.45
2023-04-02T12:31:33.780Z,15.15
2023-04-02T12:34:36.637Z,15.09
2023-04-02T12:37:39.551Z,14.28
2023-04-02T12:40:52.319Z,13.76
2023-04-02T12:44:21.475Z,13.44
2023-04-02T12:47:24.495Z,13.33
2023-04-02T12:50:27.380Z,13.71
2023-04-02T12:53:34.843Z,14.43
2023-04-02T12:56:37.706Z,14.37
2023-04-02T12:59:44.659Z,13.65
2023-04-02T13:02:52.604Z,13.57
2023-04-02T13:05:57.196Z,13.18
2023-04-02T13:09:02.038Z,13.25
2023-04-02T13:12:05.191Z,13.25
2023-04-02T13:15:18.854Z,13.11
2023-04-02T13:18:23.115Z,13.20
2023-04-02T13:21:30.258Z,13.36
2023-04-02T13:24:33.984Z,13.40
2023-04-02T13:27:36.925Z,13.58
2023-04-02T13:30:40.324Z,13.84
2023-04-02T13:33:43.550Z,13.62
2023-04-02T13:36:47.391Z,12.77
2023-04-02T13:39:50.248Z,12.13
2023-04-02T13:42:52.991Z,11.76
2023-04-02T13:45:57.982Z,11.58
2023-04-02T13:49:01.388Z,11.74
2023-04-02T13:52:05.566Z,11.91
2023-04-02T13:55:10.457Z,11.56
2023-04-02T13:58:13.395Z,11.26
2023-04-02T14:01:16.239Z,11.18
2023-04-02T14:04:22.919Z,11.07
2023-04-02T14:08:05.162Z,11.13
2023-04-02T14:11:20.200Z,11.03
2023-04-02T14:14:27.024Z,11.10
2023-04-02T14:17:47.800Z,11.24
2023-04-02T14:21:03.913Z,11.13
2023-04-02T14:24:20.085Z,11.17
2023-04-02T14:27:29.173Z,11.08
2023-04-02T14:31:13.063Z,10.95
2023-04-02T14:34:34.161Z,10.84
2023-04-02T14:38:05.865Z,10.70
2023-04-02T14:41:39.796Z,10.69
2023-04-02T14:44:58.941Z,10.78
2023-04-02T14:48:07.664Z,11.01
2023-04-02T14:51:40.970Z,11.66
2023-04-02T14:54:53.329Z,12.15
2023-04-02T14:57:56.706Z,13.55
2023-04-02T15:01:15.565Z,14.67
2023-04-02T15:04:22.622Z,13.42
2023-04-02T15:07:29.803Z,12.75
2023-04-02T15:10:36.277Z,12.28
2023-04-02T15:13:45.658Z,12.17
2023-04-02T15:16:48.583Z,12.03
2023-04-02T15:19:59.598Z,12.01
2023-04-02T15:23:14.310Z,12.22
2023-04-02T15:26:47.124Z,12.54
2023-04-02T15:30:09.180Z,13.78
2023-04-02T15:33:30.872Z,14.19
2023-04-02T15:36:36.983Z,14.39
2023-04-02T15:39:55.697Z,13.99
2023-04-02T15:43:16.691Z,13.83
2023-04-02T15:46:23.394Z,13.78
2023-04-02T15:49:38.475Z,13.77
2023-04-02T15:52:58.990Z,14.25
2023-04-02T15:56:26.652Z,13.52
2023-04-02T15:59:48.067Z,13.22
2023-04-02T16:03:17.537Z,12.84
2023-04-02T16:06:29.860Z,12.60
2023-04-02T16:10:05.149Z,12.51
2023-04-02T16:13:25.774Z,11.94
2023-04-02T16:16:33.946Z,11.14
2023-04-02T16:19:45.352Z,10.72
2023-04-02T16:23:13.279Z,10.08
2023-04-02T16:27:02.246Z,9.71
2023-04-02T16:30:05.896Z,9.38
2023-04-02T16:33:22.313Z,9.04
2023-04-02T16:36:28.097Z,8.66
2023-04-02T16:39:35.194Z,8.61
2023-04-02T16:42:52.201Z,8.25
2023-04-02T16:46:13.786Z,8.16
2023-04-02T16:50:00.515Z,7.98
2023-04-02T16:53:24.623Z,7.63
2023-04-02T16:56:56.184Z,7.40
2023-04-02T17:00:25.275Z,7.32
2023-04-02T17:04:00.980Z,7.19
2023-04-02T17:07:15.945Z,7.17
2023-04-02T17:10:39.924Z,7.04
2023-04-02T17:13:46.490Z,6.89
2023-04-02T17:16:53.403Z,6.80
2023-04-02T17:19:58.479Z,6.70
2023-04-02T17:23:03.626Z,6.63
2023-04-02T17:26:09.558Z,6.49
2023-04-02T17:29:18.135Z,6.41
2023-04-02T17:32:25.836Z,6.35
2023-04-02T17:35:33.200Z,6.32
2023-04-02T17:39:05.974Z,6.22
2023-04-02T17:42:16.387Z,6.09
2023-04-02T17:45:25.582Z,5.97
2023-04-02T17:48:49.014Z,5.91
2023-04-02T17:52:15.824Z,5.80
2023-04-02T17:55:41.135Z,5.70
2023-04-02T17:58:44.290Z,5.62
2023-04-02T18:01:53.993Z,5.56
2023-04-02T18:05:25.289Z,5.47
2023-04-02T18:09:04.748Z,5.41
2023-04-02T18:12:49.337Z,5.33
2023-04-02T18:16:34.502Z,5.23
2023-04-02T18:19:46.523Z,5.16
2023-04-02T18:23:15.729Z,5.16
2023-04-02T18:26:28.087Z,5.10
2023-04-02T18:29:46.174Z,5.06
2023-04-02T18:33:06.498Z,5.03
2023-04-02T18:36:21.964Z,4.92
2023-04-02T18:39:33.472Z,4.93
2023-04-02T18:42:43.557Z,4.87
2023-04-02T18:46:13.160Z,4.86
2023-04-02T18:49:38.075Z,4.87
2023-04-02T18:52:41.714Z,4.79
2023-04-02T18:55:56.008Z,4.76
2023-04-02T18:59:19.542Z,4.76
2023-04-02T19:02:26.062Z,4.70
2023-04-02T19:05:35.353Z,4.67
2023-04-02T19:08:48.305Z,4.70
2023-04-02T19:11:53.316Z,4.71
2023-04-02T19:15:00.798Z,4.76
2023-04-02T19:18:16.538Z,4.64
2023-04-02T19:21:58.905Z,4.60
2023-04-02T19:25:20.290Z,4.60
2023-04-02T19:28:48.431Z,4.57
2023-04-02T19:31:58.542Z,4.59
2023-04-02T19:35:17.657Z,4.53
2023-04-02T19:38:36.311Z,4.50
2023-04-02T19:41:53.872Z,4.52
2023-04-02T19:44:57.331Z,4.43
2023-04-02T19:48:04.182Z,4.37
2023-04-02T19:51:07.381Z,4.39
2023-04-02T19:54:11.038Z,4.47
2023-04-02T19:57:15.883Z,4.43
2023-04-02T20:00:22.102Z,4.39
2023-04-02T20:03:27.672Z,4.35
2023-04-02T20:06:31.871Z,4.39
2023-04-02T20:09:34.826Z,4.37
2023-04-02T20:12:37.902Z,4.39
2023-04-02T20:15:41.709Z,4.41
2023-04-02T20:18:48.872Z,4.31
2023-04-02T20:21:52.357Z,4.33
2023-04-02T20:24:58.318Z,4.26
2023-04-02T20:28:04.003Z,4.12
2023-04-02T20:31:09.933Z,4.21
2023-04-02T20:34:13.077Z,4.08
2023-04-02T20:37:16.646Z,4.07
2023-04-02T20:40:19.465Z,3.97
2023-04-02T20:43:22.839Z,4.01
2023-04-02T20:46:26.594Z,4.05
2023-04-02T20:49:29.442Z,3.97
2023-04-02T20:52:33.451Z,3.97
2023-04-02T20:55:53.752Z,3.94
2023-04-02T20:58:56.554Z,3.89
2023-04-02T21:01:59.337Z,3.94
2023-04-02T21:05:02.087Z,3.93
2023-04-02T21:08:05.035Z,3.91
2023-04-02T21:11:08.848Z,3.97
2023-04-02T21:14:11.868Z,4.00
2023-04-02T21:17:16.208Z,3.88
2023-04-02T21:20:19.050Z,3.84
2023-04-02T21:23:21.768Z,3.83
2023-04-02T21:26:24.579Z,3.85
2023-04-02T21:29:30.221Z,3.82
2023-04-02T21:32:33.393Z,3.70
2023-04-02T21:35:36.320Z,3.80
2023-04-02T21:38:47.600Z,3.77
2023-04-02T21:41:52.164Z,3.79
2023-04-02T21:44:56.178Z,3.86
2023-04-02T21:48:02.083Z,3.88
2023-04-02T21:51:07.366Z,3.81
2023-04-02T21:54:10.478Z,3.79
2023-04-02T21:57:13.577Z,3.79
2023-04-02T22:00:16.786Z,3.74
2023-04-02T22:03:29.133Z,3.66
2023-04-02T22:06:40.894Z,3.64
2023-04-02T22:09:43.910Z,3.75
2023-04-02T22:12:46.854Z,3.76
2023-04-02T22:15:49.694Z,3.88
2023-04-02T22:18:53.863Z,3.88
2023-04-02T22:21:57.066Z,3.82
2023-04-02T22:25:00.825Z,3.76
2023-04-02T22:28:03.788Z,3.75
2023-04-02T22:31:19.561Z,3.70
2023-04-02T22:34:22.508Z,3.65
2023-04-02T22:37:25.591Z,3.62
2023-04-02T22:40:29.879Z,3.67
2023-04-02T22:43:32.924Z,3.60
2023-04-02T22:46:38.594Z,3.68
2023-04-02T22:49:41.492Z,3.56
2023-04-02T22:52:44.832Z,3.68
2023-04-02T22:55:48.915Z,3.58
2023-04-02T22:58:51.775Z,3.51
2023-04-02T23:01:55.109Z,3.63
2023-04-02T23:04:58.227Z,3.53
2023-04-02T23:08:01.237Z,3.55
2023-04-02T23:11:05.611Z,3.57
2023-04-02T23:14:08.395Z,3.60
2023-04-02T23:17:11.274Z,3.53
2023-04-02T23:20:14.055Z,3.60
2023-04-02T23:23:16.762Z,3.56
2023-04-02T23:26:22.247Z,3.50
2023-04-02T23:29:25.027Z,3.54
2023-04-02T23:32:27.945Z,3.53
2023-04-02T23:35:30.829Z,3.62
2023-04-02T23:38:33.632Z,3.51
2023-04-02T23:41:37.836Z,3.59
2023-04-02T23:44:40.850Z,3.64
2023-04-02T23:47:43.736Z,3.63
2023-04-02T23:50:46.680Z,3.57
2023-04-02T23:53:50.741Z,3.58
2023-04-02T23:56:53.425Z,3.61
2023-04-02T23:59:56.161Z,3.62
